Time;durP1;ratioP1;P1;durP2;ratioP2;P2;SDS_P1;SDS_P2;PMS_P1;PMS_P2;Temp;Humidity;BMP_temperature;BMP_pressure;BME280_temperature;BME280_humidity;BME280_pressure;Samples;Min_cycle;Max_cycle;Signal;HPM_P1;HPM_P2
2024/03/15 00:00:28;;;;;;;;;;;;;;;;;;2205993;67;1442;-17
2024/03/15 00:02:58;;;;;;;;;;;;;;;;;;2201546;67;1455;-17
2024/03/15 00:05:30;;;;;;;;;;;;;;;;;;2202071;67;2345;-18
2024/03/15 00:08:00;;;;;;;;;;;;;;;;;;2204643;67;1543;-17
2024/03/15 00:10:31;;;;;;;;;;;;;;;;;;2206331;59;2156;-17
2024/03/15 00:13:03;;;;;;;;;;;;;;;;;;2204279;67;1953;-17
2024/03/15 00:15:33;;;;;;;;;;;;;;;;;;2206762;59;2382;-17
2024/03/15 00:18:03;;;;;;;;;;;;;;;;;;2199205;67;1526;-17
2024/03/15 00:20:34;;;;;;;;;;;;;;;;;;2201678;59;2052;-17
2024/03/15 00:23:07;;;;;;;;;;;;;;;;;;2203884;59;1958;-17
2024/03/15 00:25:37;;;;;;;;;;;;;;;;;;2206305;59;2090;-18
2024/03/15 00:28:08;;;;;;;;;;;;;;;;;;2201673;67;1606;-17
2024/03/15 00:30:40;;;;;;;;;;;;;;;;;;2206984;67;1337;-17
2024/03/15 00:33:12;;;;;;;;;;;;;;;;;;2198106;59;2323;-17
2024/03/15 00:35:43;;;;;;;;;;;;;;;;;;2207027;67;1666;-17
2024/03/15 00:38:13;;;;;;;;;;;;;;;;;;2202064;59;2213;-17
2024/03/15 00:40:43;;;;;;;;;;;;;;;;;;2207487;59;1717;-17
2024/03/15 00:43:16;;;;;;;;;;;;;;;;;;2205690;59;2006;-17
2024/03/15 00:45:46;;;;;;;;;;;;;;;;;;2202812;59;1813;-17
2024/03/15 00:48:17;;;;;;;;;;;;;;;;;;2204884;67;2508;-17
2024/03/15 00:50:47;;;;;;;;;;;;;;;;;;2207474;67;1655;-17
2024/03/15 00:53:17;;;;;;;;;;;;;;;;;;2199535;59;1995;-17
2024/03/15 00:55:48;;;;;;;;;;;;;;;;;;2207243;67;1452;-17
2024/03/15 00:58:19;;;;;;;;;;;;;;;;;;2198508;67;1459;-17
2024/03/15 01:00:49;;;;;;;;;;;;;;;;;;2207174;59;2603;-17
2024/03/15 01:03:23;;;;;;;;;;;;;;;;;;2202259;67;1615;-17
2024/03/15 01:05:55;;;;;;;;;;;;;;;;;;2201405;59;2079;-17
2024/03/15 01:08:26;;;;;;;;;;;;;;;;;;2206787;67;1506;-17
2024/03/15 01:10:56;;;;;;;;;;;;;;;;;;2207034;59;2291;-17
2024/03/15 01:13:28;;;;;;;;;;;;;;;;;;2201763;59;1934;-17
2024/03/15 01:15:58;;;;;;;;;;;;;;;;;;2200365;59;2364;-17
2024/03/15 01:18:28;;;;;;;;;;;;;;;;;;2207682;59;1547;-18
2024/03/15 01:20:59;;;;;;;;;;;;;;;;;;2206683;59;2275;-17
2024/03/15 01:23:29;;;;;;;;;;;;;;;;;;2208319;59;1427;-17
2024/03/15 01:25:59;;;;;;;;;;;;;;;;;;2201765;59;1805;-17
2024/03/15 01:28:30;;;;;;;;;;;;;;;;;;2206480;59;2280;-17
2024/03/15 01:31:00;;;;;;;;;;;;;;;;;;2206173;67;1553;-17
2024/03/15 01:33:31;;;;;;;;;;;;;;;;;;2204119;59;2360;-17
2024/03/15 01:36:01;;;;;;;;;;;;;;;;;;2206368;67;1652;-17
2024/03/15 01:38:42;;;;;;;;;;;;;;;;;;2204774;59;2169;-17
2024/03/15 01:41:12;;;;;;;;;;;;;;;;;;2204364;59;1726;-17
2024/03/15 01:43:50;;;;;;;;;;;;;;;;;;2209183;59;2630;-17
2024/03/15 01:46:21;;;;;;;;;;;;;;;;;;2205865;59;1550;-17
2024/03/15 01:48:52;;;;;;;;;;;;;;;;;;2206317;59;1968;-17
2024/03/15 01:51:23;;;;;;;;;;;;;;;;;;2201759;67;1594;-17
2024/03/15 01:53:53;;;;;;;;;;;;;;;;;;2203627;59;2461;-17
2024/03/15 01:56:23;;;;;;;;;;;;;;;;;;2203951;59;1611;-17
2024/03/15 01:58:54;;;;;;;;;;;;;;;;;;2203127;59;2082;-17
2024/03/15 02:01:26;;;;;;;;;;;;;;;;;;2204988;59;2105;-17
2024/03/15 02:03:58;;;;;;;;;;;;;;;;;;2206130;59;2720;-17
2024/03/15 02:06:29;;;;;;;;;;;;;;;;;;2205041;59;1948;-17
2024/03/15 02:08:59;;;;;;;;;;;;;;;;;;2206385;59;1464;-17
2024/03/15 02:11:29;;;;;;;;;;;;;;;;;;2206042;59;2042;-17
2024/03/15 02:14:00;;;;;;;;;;;;;;;;;;2206134;59;1912;-17
2024/03/15 02:16:34;;;;;;;;;;;;;;;;;;2205327;59;2227;-17
2024/03/15 02:19:04;;;;;;;;;;;;;;;;;;2205801;67;1528;-17
2024/03/15 02:21:35;;;;;;;;;;;;;;;;;;2200883;67;2832;-18
2024/03/15 02:24:07;;;;;;;;;;;;;;;;;;2203571;67;1737;-17
2024/03/15 02:26:39;;;;;;;;;;;;;;;;;;2207153;59;2589;-17
2024/03/15 02:29:12;;;;;;;;;;;;;;;;;;2205519;59;1588;-17
2024/03/15 02:31:46;;;;;;;;;;;;;;;;;;2206762;67;1535;-17
2024/03/15 02:34:17;;;;;;;;;;;;;;;;;;2204216;59;2751;-17
2024/03/15 02:36:47;;;;;;;;;;;;;;;;;;2207084;67;1682;-17
2024/03/15 02:39:19;;;;;;;;;;;;;;;;;;2202057;59;2267;-17
2024/03/15 02:41:49;;;;;;;;;;;;;;;;;;2202580;67;1532;-17
2024/03/15 02:44:19;;;;;;;;;;;;;;;;;;2204736;67;2710;-17
2024/03/15 02:46:50;;;;;;;;;;;;;;;;;;2201568;59;1935;-17
2024/03/15 02:49:21;;;;;;;;;;;;;;;;;;2201075;59;2350;-17
2024/03/15 02:51:54;;;;;;;;;;;;;;;;;;2207044;67;1505;-17
2024/03/15 02:54:24;;;;;;;;;;;;;;;;;;2200459;59;1981;-17
2024/03/15 02:56:55;;;;;;;;;;;;;;;;;;2206551;67;1433;-17
2024/03/15 02:59:25;;;;;;;;;;;;;;;;;;2202597;67;1806;-17
2024/03/15 03:01:56;;;;;;;;;;;;;;;;;;2206905;67;2502;-17
2024/03/15 03:04:26;;;;;;;;;;;;;;;;;;2201825;67;1612;-17
2024/03/15 03:06:57;;;;;;;;;;;;;;;;;;2205832;59;2479;-17
2024/03/15 03:09:27;;;;;;;;;;;;;;;;;;2206124;67;1444;-17
2024/03/15 03:12:00;;;;;;;;;;;;;;;;;;2200575;59;2443;-17
2024/03/15 03:14:33;;;;;;;;;;;;;;;;;;2200798;59;1977;-17
2024/03/15 03:17:04;;;;;;;;;;;;;;;;;;2207056;59;2258;-17
2024/03/15 03:19:35;;;;;;;;;;;;;;;;;;2205970;67;1591;-17
2024/03/15 03:22:06;;;;;;;;;;;;;;;;;;2201715;59;1850;-17
2024/03/15 03:24:36;;;;;;;;;;;;;;;;;;2197486;67;1620;-17
2024/03/15 03:27:06;;;;;;;;;;;;;;;;;;2206508;67;2120;-17
2024/03/15 03:29:37;;;;;;;;;;;;;;;;;;2198118;67;1516;-17
2024/03/15 03:32:07;;;;;;;;;;;;;;;;;;2206224;67;1927;-17
2024/03/15 03:34:38;;;;;;;;;;;;;;;;;;2205216;59;2789;-17
2024/03/15 03:37:08;;;;;;;;;;;;;;;;;;2205980;67;1491;-17
2024/03/15 03:39:39;;;;;;;;;;;;;;;;;;2202715;59;2598;-17
2024/03/15 03:42:12;;;;;;;;;;;;;;;;;;2204879;67;1584;-17
2024/03/15 03:44:42;;;;;;;;;;;;;;;;;;2202456;59;2033;-17
2024/03/15 03:47:12;;;;;;;;;;;;;;;;;;2204385;59;1453;-17
2024/03/15 03:49:43;;;;;;;;;;;;;;;;;;2206627;59;2128;-17
2024/03/15 03:52:14;;;;;;;;;;;;;;;;;;2202365;67;1984;-17
2024/03/15 03:54:44;;;;;;;;;;;;;;;;;;2206460;59;2262;-17
2024/03/15 03:57:21;;;;;;;;;;;;;;;;;;2205456;67;1515;-17
2024/03/15 03:59:51;;;;;;;;;;;;;;;;;;2206546;67;1637;-17
2024/03/15 04:02:22;;;;;;;;;;;;;;;;;;2205687;59;2154;-17
2024/03/15 04:04:54;;;;;;;;;;;;;;;;;;2206535;67;1522;-17
2024/03/15 04:07:27;;;;;;;;;;;;;;;;;;2205333;59;2205;-17
2024/03/15 04:09:58;;;;;;;;;;;;;;;;;;2206798;67;1664;-17
2024/03/15 04:12:28;;;;;;;;;;;;;;;;;;2200807;59;2429;-17
2024/03/15 04:15:00;;;;;;;;;;;;;;;;;;2206214;59;1611;-17
2024/03/15 04:17:30;;;;;;;;;;;;;;;;;;2201882;53;2583;-24
2024/03/15 04:20:00;;;;;;;;;;;;;;;;;;2197550;59;1771;-25
2024/03/15 04:22:30;;;;;;;;;;;;;;;;;;2196738;59;2021;-25
2024/03/15 04:25:01;;;;;;;;;;;;;;;;;;2196104;59;1709;-25
2024/03/15 04:27:33;;;;;;;;;;;;;;;;;;2193955;60;1791;-25
2024/03/15 04:30:22;;;;;;;;;;;;;;;;;;2194297;60;2413;-25
2024/03/15 04:32:55;;;;;;;;;;;;;;;;;;2191874;67;2095;-25
2024/03/15 04:35:27;;;;;;;;;;;;;;;;;;2196094;60;2010;-25
2024/03/15 04:37:58;;;;;;;;;;;;;;;;;;2195785;59;1851;-25
2024/03/15 04:40:28;;;;;;;;;;;;;;;;;;2196942;59;2148;-25
2024/03/15 04:42:59;;;;;;;;;;;;;;;;;;2195232;59;1828;-25
2024/03/15 04:45:29;;;;;;;;;;;;;;;;;;2193451;59;2037;-25
2024/03/15 04:48:00;;;;;;;;;;;;;;;;;;2195284;67;1859;-25
2024/03/15 04:50:31;;;;;;;;;;;;;;;;;;2194279;59;1923;-25
2024/03/15 04:53:02;;;;;;;;;;;;;;;;;;2195560;67;2005;-25
2024/03/15 04:55:33;;;;;;;;;;;;;;;;;;2197085;59;2536;-25
2024/03/15 04:58:04;;;;;;;;;;;;;;;;;;2199130;67;1904;-25
2024/03/15 05:00:34;;;;;;;;;;;;;;;;;;2193849;59;1986;-25
2024/03/15 05:03:05;;;;;;;;;;;;;;;;;;2198073;59;2463;-25
2024/03/15 05:05:35;;;;;;;;;;;;;;;;;;2193219;59;1838;-25
2024/03/15 05:08:06;;;;;;;;;;;;;;;;;;2197920;67;2158;-25
2024/03/15 05:10:36;;;;;;;;;;;;;;;;;;2196191;67;1949;-25
2024/03/15 05:13:07;;;;;;;;;;;;;;;;;;2197099;59;2205;-25
2024/03/15 05:15:39;;;;;;;;;;;;;;;;;;2196567;59;1950;-25
2024/03/15 05:18:09;;;;;;;;;;;;;;;;;;2198435;59;2219;-25
2024/03/15 05:20:39;;;;;;;;;;;;;;;;;;2196428;60;1993;-25
2024/03/15 05:23:10;;;;;;;;;;;;;;;;;;2195478;59;2593;-25
2024/03/15 05:25:40;;;;;;;;;;;;;;;;;;2196345;59;1881;-25
2024/03/15 05:28:11;;;;;;;;;;;;;;;;;;2197844;59;2669;-25
2024/03/15 05:30:43;;;;;;;;;;;;;;;;;;2194112;67;1828;-25
2024/03/15 05:33:14;;;;;;;;;;;;;;;;;;2193943;67;2392;-25
2024/03/15 05:35:44;;;;;;;;;;;;;;;;;;2196311;59;2135;-25
2024/03/15 05:38:14;;;;;;;;;;;;;;;;;;2194889;59;1892;-25
2024/03/15 05:40:45;;;;;;;;;;;;;;;;;;2196480;59;2712;-25
2024/03/15 05:43:16;;;;;;;;;;;;;;;;;;2195077;59;2268;-25
2024/03/15 05:45:46;;;;;;;;;;;;;;;;;;2196809;59;2241;-25
2024/03/15 05:48:17;;;;;;;;;;;;;;;;;;2196083;59;1849;-25
2024/03/15 05:50:47;;;;;;;;;;;;;;;;;;2190750;67;2191;-26
2024/03/15 05:53:17;;;;;;;;;;;;;;;;;;2198423;67;1957;-26
2024/03/15 05:55:48;;;;;;;;;;;;;;;;;;2197689;59;2211;-27
2024/03/15 05:58:18;;;;;;;;;;;;;;;;;;2198727;67;2087;-27
2024/03/15 06:00:48;;;;;;;;;;;;;;;;;;2196715;67;3326;-26
2024/03/15 06:03:20;;;;;;;;;;;;;;;;;;2197814;59;2167;-26
2024/03/15 06:05:50;;;;;;;;;;;;;;;;;;2193252;64;1972;-26
2024/03/15 06:08:21;;;;;;;;;;;;;;;;;;2194392;59;1937;-26
2024/03/15 06:10:51;;;;;;;;;;;;;;;;;;2197787;59;1767;-27
2024/03/15 06:13:22;;;;;;;;;;;;;;;;;;2193754;59;2228;-27
2024/03/15 06:15:53;;;;;;;;;;;;;;;;;;2197960;59;2531;-27
2024/03/15 06:18:23;;;;;;;;;;;;;;;;;;2196628;59;2131;-27
2024/03/15 06:20:53;;;;;;;;;;;;;;;;;;2194644;67;1908;-27
2024/03/15 06:23:23;;;;;;;;;;;;;;;;;;2189633;59;2033;-26
2024/03/15 06:25:53;;;;;;;;;;;;;;;;;;2192958;59;2308;-26
2024/03/15 06:28:25;;;;;;;;;;;;;;;;;;2195867;67;2222;-26
2024/03/15 06:30:56;;;;;;;;;;;;;;;;;;2197985;63;2686;-26
2024/03/15 06:33:31;;;;;;;;;;;;;;;;;;2193165;67;2153;-26
2024/03/15 06:36:03;;;;;;;;;;;;;;;;;;2197324;59;2181;-26
2024/03/15 06:44:19;;;;;;;;;;;;;;;;;;2196486;67;2247;-26
2024/03/15 06:47:04;;;;;;;;;;;;;;;;;;2192744;59;2000;-26
2024/03/15 06:49:44;;;;;;;;;;;;;;;;;;2196789;59;1901;-26
2024/03/15 06:55:05;;;;;;;;;;;;;;;;;;2198823;63;1816;-26
2024/03/15 06:57:38;;;;;;;;;;;;;;;;;;2196435;59;2246;-27
2024/03/15 07:00:10;;;;;;;;;;;;;;;;;;2198381;67;1922;-26
2024/03/15 07:02:43;;;;;;;;;;;;;;;;;;2195765;59;2351;-26
2024/03/15 07:05:13;;;;;;;;;;;;;;;;;;2198144;67;2021;-26
2024/03/15 07:07:44;;;;;;;;;;;;;;;;;;2196136;67;2076;-26
2024/03/15 07:10:14;;;;;;;;;;;;;;;;;;2198465;59;1754;-26
2024/03/15 07:12:46;;;;;;;;;;;;;;;;;;2196237;67;2044;-26
2024/03/15 07:15:18;;;;;;;;;;;;;;;;;;2194577;59;1864;-26
2024/03/15 07:17:48;;;;;;;;;;;;;;;;;;2196648;67;1835;-26
2024/03/15 07:20:19;;;;;;;;;;;;;;;;;;2193972;67;2229;-26
2024/03/15 07:22:49;;;;;;;;;;;;;;;;;;2192907;67;1956;-26
2024/03/15 07:25:19;;;;;;;;;;;;;;;;;;2194147;67;3310;-26
2024/03/15 07:27:51;;;;;;;;;;;;;;;;;;2196539;67;2154;-26
2024/03/15 07:30:22;;;;;;;;;;;;;;;;;;2191086;59;2493;-26
2024/03/15 07:32:52;;;;;;;;;;;;;;;;;;2192669;59;2006;-26
2024/03/15 07:35:27;;;;;;;;;;;;;;;;;;2194872;59;2523;-26
2024/03/15 07:37:58;;;;;;;;;;;;;;;;;;2193448;59;2679;-26
2024/03/15 07:40:29;;;;;;;;;;;;;;;;;;2196645;59;2236;-26
2024/03/15 07:43:00;;;;;;;;;;;;;;;;;;2196857;67;1975;-26
2024/03/15 07:45:30;;;;;;;;;;;;;;;;;;2195989;59;1808;-26
2024/03/15 07:48:01;;;;;;;;;;;;;;;;;;2192592;59;3701;-26
2024/03/15 07:50:31;;;;;;;;;;;;;;;;;;2196036;67;2356;-26
2024/03/15 07:53:03;;;;;;;;;;;;;;;;;;2194912;59;2340;-26
2024/03/15 07:55:34;;;;;;;;;;;;;;;;;;2196657;59;3628;-26
2024/03/15 07:58:04;;;;;;;;;;;;;;;;;;2196979;59;2579;-26
2024/03/15 08:00:35;;;;;;;;;;;;;;;;;;2194517;59;2438;-26
2024/03/15 08:03:06;;;;;;;;;;;;;;;;;;2197856;67;1809;-26
2024/03/15 08:05:37;;;;;;;;;;;;;;;;;;2192857;59;2116;-26
2024/03/15 08:08:08;;;;;;;;;;;;;;;;;;2191897;67;2024;-26
2024/03/15 08:10:38;;;;;;;;;;;;;;;;;;2195828;59;2749;-26
2024/03/15 08:13:11;;;;;;;;;;;;;;;;;;2192998;67;2023;-26
2024/03/15 08:15:41;;;;;;;;;;;;;;;;;;2195264;59;2732;-26
2024/03/15 08:18:14;;;;;;;;;;;;;;;;;;2198510;59;2534;-26
2024/03/15 08:20:47;;;;;;;;;;;;;;;;;;2196717;59;5174;-26
2024/03/15 08:23:18;;;;;;;;;;;;;;;;;;2197932;59;2566;-26
2024/03/15 08:25:48;;;;;;;;;;;;;;;;;;2196784;59;1821;-26
2024/03/15 08:28:19;;;;;;;;;;;;;;;;;;2195119;59;2346;-26
2024/03/15 08:30:49;;;;;;;;;;;;;;;;;;2196794;59;1869;-26
2024/03/15 08:33:20;;;;;;;;;;;;;;;;;;2194738;59;2940;-26
2024/03/15 08:35:50;;;;;;;;;;;;;;;;;;2193727;67;1822;-26
2024/03/15 08:38:21;;;;;;;;;;;;;;;;;;2196613;59;2391;-24
2024/03/15 08:40:52;;;;;;;;;;;;;;;;;;2195058;59;2637;-24
2024/03/15 08:43:22;;;;;;;;;;;;;;;;;;2197976;59;1996;-24
2024/03/15 08:45:52;;;;;;;;;;;;;;;;;;2190217;59;2293;-24
2024/03/15 08:48:23;;;;;;;;;;;;;;;;;;2197193;59;1989;-24
2024/03/15 08:50:53;;;;;;;;;;;;;;;;;;2196683;63;2355;-24
2024/03/15 08:53:26;;;;;;;;;;;;;;;;;;2194344;59;1952;-23
2024/03/15 08:55:58;;;;;;;;;;;;;;;;;;2193367;59;2693;-23
2024/03/15 08:58:28;;;;;;;;;;;;;;;;;;2195480;67;1885;-26
2024/03/15 09:00:58;;;;;;;;;;;;;;;;;;2196474;59;1961;-24
2024/03/15 09:03:28;;;;;;;;;;;;;;;;;;2194595;59;2023;-24
2024/03/15 09:06:00;;;;;;;;;;;;;;;;;;2196685;59;2738;-24
2024/03/15 09:08:30;;;;;;;;;;;;;;;;;;2199206;67;1711;-24
2024/03/15 09:11:01;;;;;;;;;;;;;;;;;;2196934;67;1870;-24
2024/03/15 09:13:31;;;;;;;;;;;;;;;;;;2198025;59;2399;-23
2024/03/15 09:16:02;;;;;;;;;;;;;;;;;;2195951;59;1745;-23
2024/03/15 09:18:33;;;;;;;;;;;;;;;;;;2198442;59;2057;-23
2024/03/15 09:21:03;;;;;;;;;;;;;;;;;;2196789;59;2862;-24
2024/03/15 09:23:33;;;;;;;;;;;;;;;;;;2194945;59;2376;-24
2024/03/15 09:26:06;;;;;;;;;;;;;;;;;;2195978;59;2549;-24
2024/03/15 09:28:43;;;;;;;;;;;;;;;;;;2196995;61;1869;-24
2024/03/15 09:31:14;;;;;;;;;;;;;;;;;;2197529;59;1964;-24
2024/03/15 09:33:47;;;;;;;;;;;;;;;;;;2195466;59;2183;-24
2024/03/15 09:36:18;;;;;;;;;;;;;;;;;;2195845;60;1784;-24
2024/03/15 09:38:49;;;;;;;;;;;;;;;;;;2193427;59;2371;-23
2024/03/15 09:41:19;;;;;;;;;;;;;;;;;;2197659;59;2814;-23
2024/03/15 09:43:50;;;;;;;;;;;;;;;;;;2196385;67;2268;-24
2024/03/15 09:46:21;;;;;;;;;;;;;;;;;;2197765;59;2573;-24
2024/03/15 09:48:51;;;;;;;;;;;;;;;;;;2193181;59;1959;-23
2024/03/15 09:51:22;;;;;;;;;;;;;;;;;;2198797;67;2510;-23
2024/03/15 09:53:52;;;;;;;;;;;;;;;;;;2193810;66;1936;-23
2024/03/15 09:56:24;;;;;;;;;;;;;;;;;;2197909;59;2364;-23
2024/03/15 09:58:57;;;;;;;;;;;;;;;;;;2196602;67;1967;-23
2024/03/15 10:01:28;;;;;;;;;;;;;;;;;;2194671;59;2503;-23
2024/03/15 10:03:58;;;;;;;;;;;;;;;;;;2196140;59;1862;-23
2024/03/15 10:06:28;;;;;;;;;;;;;;;;;;2198359;59;2411;-23
2024/03/15 10:08:58;;;;;;;;;;;;;;;;;;2193921;59;2005;-24
2024/03/15 10:11:29;;;;;;;;;;;;;;;;;;2197351;59;2303;-23
2024/03/15 10:13:59;;;;;;;;;;;;;;;;;;2195780;59;3806;-23
2024/03/15 10:16:34;;;;;;;;;;;;;;;;;;2193592;59;1892;-23
2024/03/15 10:19:06;;;;;;;;;;;;;;;;;;2195892;59;2427;-23
2024/03/15 10:21:38;;;;;;;;;;;;;;;;;;2190673;67;2455;-24
2024/03/15 10:24:08;;;;;;;;;;;;;;;;;;2194943;59;1845;-23
2024/03/15 10:26:39;;;;;;;;;;;;;;;;;;2192498;59;2039;-23
2024/03/15 10:29:09;;;;;;;;;;;;;;;;;;2196044;59;1934;-23
2024/03/15 10:31:41;;;;;;;;;;;;;;;;;;2194089;67;1851;-23
2024/03/15 10:34:12;;;;;;;;;;;;;;;;;;2194788;67;1980;-23
2024/03/15 10:36:42;;;;;;;;;;;;;;;;;;2192726;59;1992;-23
2024/03/15 10:39:13;;;;;;;;;;;;;;;;;;2198241;59;2083;-24
2024/03/15 10:41:44;;;;;;;;;;;;;;;;;;2196692;59;1844;-24
2024/03/15 10:44:15;;;;;;;;;;;;;;;;;;2198030;67;1762;-24
2024/03/15 10:46:46;;;;;;;;;;;;;;;;;;2196424;59;2346;-24
2024/03/15 10:49:17;;;;;;;;;;;;;;;;;;2195114;67;2218;-24
2024/03/15 10:51:49;;;;;;;;;;;;;;;;;;2199049;54;3816;-18
2024/03/15 10:54:21;;;;;;;;;;;;;;;;;;2199752;59;2010;-18
2024/03/15 10:56:52;;;;;;;;;;;;;;;;;;2194470;59;2643;-18
2024/03/15 10:59:22;;;;;;;;;;;;;;;;;;2200380;67;1748;-18
2024/03/15 11:01:52;;;;;;;;;;;;;;;;;;2199143;59;2466;-18
2024/03/15 11:04:23;;;;;;;;;;;;;;;;;;2197853;59;2176;-19
2024/03/15 11:06:53;;;;;;;;;;;;;;;;;;2199533;59;1610;-18
2024/03/15 11:09:24;;;;;;;;;;;;;;;;;;2196857;59;1345;-18
2024/03/15 11:11:55;;;;;;;;;;;;;;;;;;2198701;67;1205;-18
2024/03/15 11:14:25;;;;;;;;;;;;;;;;;;2200825;59;1909;-18
2024/03/15 11:16:56;;;;;;;;;;;;;;;;;;2195905;59;1659;-18
2024/03/15 11:19:26;;;;;;;;;;;;;;;;;;2201564;67;1123;-18
2024/03/15 11:22:06;;;;;;;;;;;;;;;;;;2200943;59;2212;-18
2024/03/15 11:24:41;;;;;;;;;;;;;;;;;;2197986;59;1642;-18
2024/03/15 11:27:12;;;;;;;;;;;;;;;;;;2199339;59;1187;-19
2024/03/15 11:29:43;;;;;;;;;;;;;;;;;;2197561;67;1583;-18
2024/03/15 11:32:14;;;;;;;;;;;;;;;;;;2199454;67;1696;-18
2024/03/15 11:34:44;;;;;;;;;;;;;;;;;;2200379;59;1952;-18
2024/03/15 11:37:15;;;;;;;;;;;;;;;;;;2194970;59;1655;-18
2024/03/15 11:40:01;;;;;;;;;;;;;;;;;;2198211;59;1863;-18
2024/03/15 11:42:31;;;;;;;;;;;;;;;;;;2197209;67;1589;-18
2024/03/15 11:45:02;;;;;;;;;;;;;;;;;;2195442;59;1620;-18
2024/03/15 11:47:32;;;;;;;;;;;;;;;;;;2199316;59;1342;-18
2024/03/15 11:50:03;;;;;;;;;;;;;;;;;;2199183;67;1239;-18
2024/03/15 11:52:34;;;;;;;;;;;;;;;;;;2200709;59;1989;-18
2024/03/15 11:55:06;;;;;;;;;;;;;;;;;;2196332;67;1788;-18
2024/03/15 11:57:37;;;;;;;;;;;;;;;;;;2197011;67;1633;-18
2024/03/15 12:00:20;;;;;;;;;;;;;;;;;;2200033;64;1264;-18
2024/03/15 12:02:53;;;;;;;;;;;;;;;;;;2198089;59;2383;-18
2024/03/15 12:05:23;;;;;;;;;;;;;;;;;;2200797;59;2271;-18
2024/03/15 12:07:54;;;;;;;;;;;;;;;;;;2197574;59;2285;-18
2024/03/15 12:10:25;;;;;;;;;;;;;;;;;;2199048;59;2202;-18
2024/03/15 12:12:56;;;;;;;;;;;;;;;;;;2197770;59;2300;-18
2024/03/15 12:15:28;;;;;;;;;;;;;;;;;;2199282;59;2088;-18
2024/03/15 12:17:59;;;;;;;;;;;;;;;;;;2199116;59;2374;-18
2024/03/15 12:20:29;;;;;;;;;;;;;;;;;;2200151;59;2452;-18
2024/03/15 12:23:00;;;;;;;;;;;;;;;;;;2195046;67;1244;-18
2024/03/15 12:25:30;;;;;;;;;;;;;;;;;;2197361;59;2249;-17
2024/03/15 12:28:00;;;;;;;;;;;;;;;;;;2193875;59;2521;-18
2024/03/15 12:30:31;;;;;;;;;;;;;;;;;;2196311;59;3496;-18
2024/03/15 12:33:02;;;;;;;;;;;;;;;;;;2198165;67;2227;-18
2024/03/15 12:35:33;;;;;;;;;;;;;;;;;;2199090;59;2518;-18
2024/03/15 12:38:05;;;;;;;;;;;;;;;;;;2198088;59;1754;-18
2024/03/15 12:40:42;;;;;;;;;;;;;;;;;;2196192;59;2110;-18
2024/03/15 12:43:12;;;;;;;;;;;;;;;;;;2191593;59;2141;-18
2024/03/15 12:45:43;;;;;;;;;;;;;;;;;;2196721;59;1690;-17
2024/03/15 12:48:13;;;;;;;;;;;;;;;;;;2195271;59;1953;-18
2024/03/15 12:50:44;;;;;;;;;;;;;;;;;;2199354;60;2452;-18
2024/03/15 12:53:16;;;;;;;;;;;;;;;;;;2197738;59;3394;-18
2024/03/15 12:55:46;;;;;;;;;;;;;;;;;;2195802;59;4729;-18
2024/03/15 12:58:17;;;;;;;;;;;;;;;;;;2197733;59;2315;-18
2024/03/15 13:00:50;;;;;;;;;;;;;;;;;;2199205;67;1538;-18
2024/03/15 13:03:20;;;;;;;;;;;;;;;;;;2193734;59;2660;-18
2024/03/15 13:05:51;;;;;;;;;;;;;;;;;;2200591;67;1691;-18
2024/03/15 13:08:22;;;;;;;;;;;;;;;;;;2196301;59;2271;-18
2024/03/15 13:10:52;;;;;;;;;;;;;;;;;;2195060;59;2168;-18
2024/03/15 13:13:23;;;;;;;;;;;;;;;;;;2194754;59;3979;-18
2024/03/15 13:15:53;;;;;;;;;;;;;;;;;;2194585;59;2569;-18
2024/03/15 13:18:23;;;;;;;;;;;;;;;;;;2193204;67;1703;-18
2024/03/15 13:20:54;;;;;;;;;;;;;;;;;;2184997;59;1799;-18
2024/03/15 13:23:24;;;;;;;;;;;;;;;;;;2200899;67;1536;-18
2024/03/15 13:25:54;;;;;;;;;;;;;;;;;;2196765;59;2170;-18
2024/03/15 13:28:25;;;;;;;;;;;;;;;;;;2200481;59;1756;-18
2024/03/15 13:30:55;;;;;;;;;;;;;;;;;;2199364;59;2613;-18
2024/03/15 13:33:25;;;;;;;;;;;;;;;;;;2200901;59;2552;-17
2024/03/15 13:35:56;;;;;;;;;;;;;;;;;;2198627;59;2235;-18
2024/03/15 13:38:27;;;;;;;;;;;;;;;;;;2199296;59;2133;-18
2024/03/15 13:40:57;;;;;;;;;;;;;;;;;;2199696;59;2151;-17
2024/03/15 13:43:29;;;;;;;;;;;;;;;;;;2184635;67;1565;-17
2024/03/15 13:46:01;;;;;;;;;;;;;;;;;;2177021;59;2061;-18
2024/03/15 13:48:32;;;;;;;;;;;;;;;;;;2198119;59;2474;-18
2024/03/15 13:51:04;;;;;;;;;;;;;;;;;;2201200;59;1762;-17
2024/03/15 13:53:35;;;;;;;;;;;;;;;;;;2201109;59;2307;-18
2024/03/15 13:56:10;;;;;;;;;;;;;;;;;;2200004;67;1491;-17
2024/03/15 13:58:46;;;;;;;;;;;;;;;;;;2197318;59;2086;-18
2024/03/15 14:01:18;;;;;;;;;;;;;;;;;;2195777;59;3457;-18
2024/03/15 14:03:48;;;;;;;;;;;;;;;;;;2199475;59;2227;-18
2024/03/15 14:06:19;;;;;;;;;;;;;;;;;;2197230;59;2665;-18
2024/03/15 14:08:53;;;;;;;;;;;;;;;;;;2195637;59;3311;-18
2024/03/15 14:11:24;;;;;;;;;;;;;;;;;;2199244;60;1990;-18
2024/03/15 14:13:54;;;;;;;;;;;;;;;;;;2197542;59;2182;-18
2024/03/15 14:16:24;;;;;;;;;;;;;;;;;;2199841;67;1907;-18
2024/03/15 14:18:54;;;;;;;;;;;;;;;;;;2195004;59;2621;-18
2024/03/15 14:21:27;;;;;;;;;;;;;;;;;;2193661;59;3177;-18
2024/03/15 14:23:57;;;;;;;;;;;;;;;;;;2198517;59;2125;-18
2024/03/15 14:26:27;;;;;;;;;;;;;;;;;;2199612;59;2336;-18
2024/03/15 14:28:58;;;;;;;;;;;;;;;;;;2195772;59;1967;-18
2024/03/15 14:31:28;;;;;;;;;;;;;;;;;;2196362;59;2464;-18
2024/03/15 14:33:59;;;;;;;;;;;;;;;;;;2198951;59;2025;-18
2024/03/15 14:36:31;;;;;;;;;;;;;;;;;;2196412;59;2579;-18
2024/03/15 14:39:01;;;;;;;;;;;;;;;;;;2167618;59;2882;-18
2024/03/15 14:41:31;;;;;;;;;;;;;;;;;;2198521;59;2634;-18
2024/03/15 14:44:05;;;;;;;;;;;;;;;;;;2198240;59;1713;-18
2024/03/15 14:46:36;;;;;;;;;;;;;;;;;;2195331;59;3411;-18
2024/03/15 14:49:06;;;;;;;;;;;;;;;;;;2198712;59;2615;-18
2024/03/15 14:51:37;;;;;;;;;;;;;;;;;;2196746;67;2016;-21
2024/03/15 14:54:08;;;;;;;;;;;;;;;;;;2198173;59;1920;-20
2024/03/15 14:56:38;;;;;;;;;;;;;;;;;;2195741;59;2092;-21
2024/03/15 14:59:09;;;;;;;;;;;;;;;;;;2193803;59;2096;-21
2024/03/15 15:01:39;;;;;;;;;;;;;;;;;;2199769;67;1490;-20
2024/03/15 15:04:09;;;;;;;;;;;;;;;;;;2193628;67;2543;-20
2024/03/15 15:06:40;;;;;;;;;;;;;;;;;;2199597;67;1495;-20
2024/03/15 15:09:11;;;;;;;;;;;;;;;;;;2198141;59;2449;-20
2024/03/15 15:11:41;;;;;;;;;;;;;;;;;;2197278;63;1266;-20
2024/03/15 15:14:12;;;;;;;;;;;;;;;;;;2198423;59;1972;-20
2024/03/15 15:16:42;;;;;;;;;;;;;;;;;;2200698;67;2111;-18
2024/03/15 15:19:12;;;;;;;;;;;;;;;;;;2200036;67;1502;-18
2024/03/15 15:21:42;;;;;;;;;;;;;;;;;;2200836;67;2723;-18
2024/03/15 15:24:13;;;;;;;;;;;;;;;;;;2198374;67;1628;-18
2024/03/15 15:26:43;;;;;;;;;;;;;;;;;;2197308;59;2566;-18
2024/03/15 15:29:13;;;;;;;;;;;;;;;;;;2199754;67;2324;-18
2024/03/15 15:31:44;;;;;;;;;;;;;;;;;;2196798;59;2547;-18
2024/03/15 15:34:15;;;;;;;;;;;;;;;;;;2198452;59;2458;-18
2024/03/15 15:36:47;;;;;;;;;;;;;;;;;;2199277;59;2223;-18
2024/03/15 15:39:17;;;;;;;;;;;;;;;;;;2196494;59;1702;-18
2024/03/15 15:41:48;;;;;;;;;;;;;;;;;;2200788;67;1335;-18
2024/03/15 15:44:18;;;;;;;;;;;;;;;;;;2199030;59;2321;-18
2024/03/15 15:46:48;;;;;;;;;;;;;;;;;;2200339;59;1833;-18
2024/03/15 15:49:23;;;;;;;;;;;;;;;;;;2194314;59;2772;-18
2024/03/15 15:51:53;;;;;;;;;;;;;;;;;;2196390;59;2206;-20
2024/03/15 15:54:25;;;;;;;;;;;;;;;;;;2195667;67;1928;-20
2024/03/15 15:56:56;;;;;;;;;;;;;;;;;;2198768;67;2050;-20
2024/03/15 15:59:26;;;;;;;;;;;;;;;;;;2198089;59;2061;-20
2024/03/15 16:01:56;;;;;;;;;;;;;;;;;;2192859;59;2038;-21
2024/03/15 16:04:28;;;;;;;;;;;;;;;;;;2197336;67;1725;-20
2024/03/15 16:06:58;;;;;;;;;;;;;;;;;;2195584;67;1688;-20
2024/03/15 16:09:29;;;;;;;;;;;;;;;;;;2197956;59;2484;-20
2024/03/15 16:11:59;;;;;;;;;;;;;;;;;;2199348;67;2563;-20
2024/03/15 16:14:29;;;;;;;;;;;;;;;;;;2195318;59;1993;-20
2024/03/15 16:17:00;;;;;;;;;;;;;;;;;;2199334;67;1595;-20
2024/03/15 16:19:30;;;;;;;;;;;;;;;;;;2199298;67;1374;-20
2024/03/15 16:22:02;;;;;;;;;;;;;;;;;;2196515;67;1386;-20
2024/03/15 16:24:33;;;;;;;;;;;;;;;;;;2194856;67;2663;-20
2024/03/15 16:27:04;;;;;;;;;;;;;;;;;;2198729;67;1586;-20
2024/03/15 16:29:34;;;;;;;;;;;;;;;;;;2199560;67;1599;-20
2024/03/15 16:32:07;;;;;;;;;;;;;;;;;;2196976;59;2088;-20
2024/03/15 16:34:37;;;;;;;;;;;;;;;;;;2192899;59;3387;-20
2024/03/15 16:37:09;;;;;;;;;;;;;;;;;;2194147;67;2768;-20
2024/03/15 16:39:40;;;;;;;;;;;;;;;;;;2197610;59;1978;-20
2024/03/15 16:42:12;;;;;;;;;;;;;;;;;;2199789;59;2383;-20
2024/03/15 16:44:43;;;;;;;;;;;;;;;;;;2198827;59;2838;-20
2024/03/15 16:47:14;;;;;;;;;;;;;;;;;;2199136;67;1743;-20
2024/03/15 16:49:45;;;;;;;;;;;;;;;;;;2202013;59;2334;-20
2024/03/15 16:52:18;;;;;;;;;;;;;;;;;;2196435;59;2396;-20
2024/03/15 16:54:48;;;;;;;;;;;;;;;;;;2201237;59;2640;-20
2024/03/15 16:57:18;;;;;;;;;;;;;;;;;;2195056;59;1625;-20
2024/03/15 16:59:51;;;;;;;;;;;;;;;;;;2200483;59;1816;-20
2024/03/15 17:02:23;;;;;;;;;;;;;;;;;;2199380;67;1522;-20
2024/03/15 17:04:53;;;;;;;;;;;;;;;;;;2196863;59;2691;-20
2024/03/15 17:07:24;;;;;;;;;;;;;;;;;;2198917;59;1512;-19
2024/03/15 17:09:54;;;;;;;;;;;;;;;;;;2197251;59;2225;-20
2024/03/15 17:12:25;;;;;;;;;;;;;;;;;;2194105;67;1652;-20
2024/03/15 17:14:55;;;;;;;;;;;;;;;;;;2201601;59;1941;-20
2024/03/15 17:17:25;;;;;;;;;;;;;;;;;;2199492;67;2085;-20
2024/03/15 17:19:57;;;;;;;;;;;;;;;;;;2201830;67;1507;-20
2024/03/15 17:22:27;;;;;;;;;;;;;;;;;;2196173;67;2152;-20
2024/03/15 17:24:58;;;;;;;;;;;;;;;;;;2200498;59;1837;-20
2024/03/15 17:27:28;;;;;;;;;;;;;;;;;;2194056;59;2140;-20
2024/03/15 17:29:59;;;;;;;;;;;;;;;;;;2201347;67;1597;-20
2024/03/15 17:32:30;;;;;;;;;;;;;;;;;;2195922;59;3133;-20
2024/03/15 17:35:00;;;;;;;;;;;;;;;;;;2193889;59;2819;-19
2024/03/15 17:37:31;;;;;;;;;;;;;;;;;;2194347;59;2625;-17